Time;durP1;ratioP1;P1;durP2;ratioP2;P2;SDS_P1;SDS_P2;PMS_P1;PMS_P2;Temp;Humidity;BMP_temperature;BMP_pressure;BME280_temperature;BME280_humidity;BME280_pressure;Samples;Min_cycle;Max_cycle;Signal;HPM_P1;HPM_P2
2023/11/18 00:01:11;;;;;;;15.60;11.00;;;;;;;3.13;100.00;101163.04;104798;1255;60367;-54
2023/11/18 00:03:39;;;;;;;14.60;10.70;;;;;;;3.11;100.00;101164.63;104602;1260;73021;-57
2023/11/18 00:06:07;;;;;;;15.40;11.20;;;;;;;3.11;100.00;101166.57;108921;1254;67264;-58
2023/11/18 00:08:35;;;;;;;15.30;10.80;;;;;;;3.09;100.00;101162.47;108822;1258;71471;-58
2023/11/18 00:11:03;;;;;;;16.40;10.40;;;;;;;3.07;100.00;101160.68;108790;1259;61000;-58
2023/11/18 00:13:31;;;;;;;15.80;10.80;;;;;;;3.05;100.00;101161.40;108893;1254;58904;-59
2023/11/18 00:15:59;;;;;;;15.20;9.90;;;;;;;3.03;100.00;101162.99;108914;1254;73455;-59
2023/11/18 00:18:26;;;;;;;17.30;10.00;;;;;;;3.05;100.00;101163.20;108855;1254;67389;-59
2023/11/18 00:20:57;;;;;;;15.50;8.90;;;;;;;3.06;100.00;101161.05;108875;1255;72390;-60
2023/11/18 00:23:26;;;;;;;15.50;10.50;;;;;;;3.05;100.00;101164.61;108892;1254;60747;-59
2023/11/18 00:25:54;;;;;;;14.20;10.30;;;;;;;3.06;100.00;101162.82;108777;1256;58724;-58
2023/11/18 00:28:22;;;;;;;15.20;10.10;;;;;;;3.07;100.00;101163.35;108960;1255;73969;-57
2023/11/18 00:30:49;;;;;;;18.80;11.40;;;;;;;3.06;100.00;101162.65;108819;1255;67276;-56
2023/11/18 00:33:17;;;;;;;13.50;10.50;;;;;;;2.99;100.00;101157.11;109027;1255;71494;-60
2023/11/18 00:35:45;;;;;;;11.40;9.10;;;;;;;2.94;100.00;101153.55;108869;1256;59373;-56
2023/11/18 00:38:13;;;;;;;12.60;9.80;;;;;;;2.92;100.00;101153.17;108922;1254;58788;-58
2023/11/18 00:40:40;;;;;;;16.00;11.40;;;;;;;2.91;100.00;101146.42;108466;1258;71805;-56
2023/11/18 00:43:08;;;;;;;12.30;10.20;;;;;;;2.88;100.00;101142.52;104589;1261;66669;-58
2023/11/18 00:45:35;;;;;;;17.10;10.50;;;;;;;2.83;100.00;101137.17;104754;1254;72737;-59
2023/11/18 00:48:05;;;;;;;14.60;9.40;;;;;;;2.82;100.00;101135.92;104786;1256;60408;-55
2023/11/18 00:50:33;;;;;;;11.20;8.40;;;;;;;2.81;100.00;101131.48;106278;1256;60440;-55
2023/11/18 00:53:00;;;;;;;15.40;10.30;;;;;;;2.81;100.00;101128.99;104611;1259;75148;-58
2023/11/18 00:55:28;;;;;;;10.60;9.40;;;;;;;2.82;100.00;101122.63;106127;1260;67179;-58
2023/11/18 00:57:55;;;;;;;11.80;9.60;;;;;;;2.86;100.00;101119.64;104842;1259;75088;-59
2023/11/18 01:00:26;;;;;;;16.60;9.20;;;;;;;2.85;100.00;101123.90;104664;1256;59844;-58
2023/11/18 01:02:57;;;;;;;13.20;9.20;;;;;;;2.83;100.00;101121.39;104784;1256;60946;-56
2023/11/18 01:05:25;;;;;;;12.30;8.90;;;;;;;2.81;100.00;101122.63;105031;1258;72156;-56
2023/11/18 01:07:53;;;;;;;12.60;9.90;;;;;;;2.79;100.00;101115.02;105498;1256;66373;-59
2023/11/18 01:10:20;;;;;;;11.90;9.10;;;;;;;2.80;100.00;101115.37;104872;1257;71743;-56
2023/11/18 01:12:48;;;;;;;10.90;8.60;;;;;;;2.82;100.00;101115.17;104813;1256;60939;-54
2023/11/18 01:15:16;;;;;;;14.00;9.30;;;;;;;2.83;100.00;101112.53;104872;1254;59811;-54
2023/11/18 01:17:44;;;;;;;11.40;8.60;;;;;;;2.83;100.00;101107.38;104852;1259;71829;-58
2023/11/18 01:20:13;;;;;;;9.90;8.90;;;;;;;2.84;100.00;101105.09;104912;1259;69221;-57
2023/11/18 01:22:42;;;;;;;11.90;8.40;;;;;;;2.85;100.00;101105.98;104945;1256;70882;-60
2023/11/18 01:25:11;;;;;;;12.40;9.70;;;;;;;2.84;100.00;101107.94;104935;1258;62266;-58
2023/11/18 01:27:39;;;;;;;13.00;9.80;;;;;;;2.82;100.00;101103.48;104671;1255;59632;-56
2023/11/18 01:30:08;;;;;;;13.30;9.50;;;;;;;2.81;100.00;101105.96;104708;1254;73711;-57
2023/11/18 01:32:36;;;;;;;14.80;10.20;;;;;;;2.80;100.00;101103.48;105420;1256;65682;-57
2023/11/18 01:35:04;;;;;;;13.90;8.80;;;;;;;2.79;100.00;101107.57;104903;1256;71470;-57
2023/11/18 01:37:32;;;;;;;13.50;9.60;;;;;;;2.76;100.00;101101.86;106397;1256;59744;-56
2023/11/18 01:40:05;;;;;;;12.50;9.50;;;;;;;2.75;100.00;101098.66;104894;1259;59676;-59
2023/11/18 01:42:34;;;;;;;10.30;8.60;;;;;;;2.73;100.00;101100.95;104904;1256;71864;-61
2023/11/18 01:45:03;;;;;;;12.30;8.80;;;;;;;2.72;100.00;101097.25;105920;1255;65817;-57
2023/11/18 01:47:32;;;;;;;11.00;8.20;;;;;;;2.74;100.00;101098.84;105770;1256;71759;-61
2023/11/18 01:49:59;;;;;;;9.60;7.90;;;;;;;2.77;100.00;101100.98;104801;1261;59723;-59
2023/11/18 01:52:29;;;;;;;10.40;7.50;;;;;;;2.78;100.00;101100.64;105464;1254;59734;-58
2023/11/18 01:54:57;;;;;;;8.40;6.90;;;;;;;2.79;100.00;101106.86;104996;1256;73288;-58
2023/11/18 01:57:26;;;;;;;11.20;8.40;;;;;;;2.79;100.00;101104.73;104678;1256;64632;-60
2023/11/18 01:59:54;;;;;;;11.00;8.60;;;;;;;2.79;100.00;101108.63;104658;1259;71461;-58
2023/11/18 02:02:21;;;;;;;10.10;7.60;;;;;;;2.80;100.00;101108.63;104730;1258;61057;-57
2023/11/18 02:04:49;;;;;;;8.90;7.20;;;;;;;2.80;100.00;101109.52;104851;1259;60040;-57
2023/11/18 02:07:17;;;;;;;9.50;7.90;;;;;;;2.80;100.00;101111.45;105636;1253;71840;-56
2023/11/18 02:09:45;;;;;;;12.40;8.30;;;;;;;2.81;100.00;101107.73;104611;1259;67513;-59
2023/11/18 02:12:34;;;;;;;12.30;8.10;;;;;;;2.80;100.00;101107.92;105179;1256;71450;-57
2023/11/18 02:15:03;;;;;;;14.10;8.90;;;;;;;2.78;100.00;101120.84;104669;1253;61382;-60
2023/11/18 02:17:31;;;;;;;16.50;9.40;;;;;;;2.75;100.00;101107.35;104841;1259;60090;-60
2023/11/18 02:19:59;;;;;;;10.40;9.10;;;;;;;2.74;100.00;101110.34;104958;1253;72101;-57
2023/11/18 02:22:27;;;;;;;11.00;8.00;;;;;;;2.73;100.00;101109.82;104603;1253;65809;-56
2023/11/18 02:24:55;;;;;;;11.30;8.50;;;;;;;2.74;100.00;101113.36;104594;1253;72743;-58
2023/11/18 02:27:24;;;;;;;9.20;7.10;;;;;;;2.76;100.00;101111.96;104725;1258;61329;-57
2023/11/18 02:29:51;;;;;;;10.30;7.10;;;;;;;2.77;100.00;101114.63;105387;1258;59581;-59
2023/11/18 02:32:30;;;;;;;10.30;9.30;;;;;;;2.78;100.00;101115.00;104720;1253;73085;-56
2023/11/18 02:35:19;;;;;;;11.90;7.20;;;;;;;2.77;100.00;101114.81;105284;1253;65751;-59
2023/11/18 02:37:47;;;;;;;10.70;8.20;;;;;;;2.78;100.00;101122.62;104979;1259;71456;-56
2023/11/18 02:40:19;;;;;;;11.40;8.00;;;;;;;2.78;100.00;101107.73;104903;1253;63026;-57
2023/11/18 02:42:48;;;;;;;11.20;8.00;;;;;;;2.79;100.00;101103.30;104803;1253;60533;-60
2023/11/18 02:47:39;;;;;;;10.00;8.90;;;;;;;2.80;100.00;101162.86;101922;1295;600399;-59
2023/11/18 02:50:06;;;;;;;16.40;9.30;;;;;;;2.77;100.00;101217.80;105969;1270;59270;-58
2023/11/18 02:52:34;;;;;;;11.00;8.60;;;;;;;2.75;100.00;101195.63;107780;1272;59375;-57
2023/11/18 02:55:02;;;;;;;11.60;8.90;;;;;;;2.74;100.00;101181.43;104063;1271;72701;-56
2023/11/18 02:57:30;;;;;;;10.10;8.60;;;;;;;2.73;100.00;101173.81;104578;1260;67358;-55
2023/11/18 03:00:00;;;;;;;11.00;8.50;;;;;;;2.71;100.00;101161.05;104934;1260;70885;-55
2023/11/18 03:02:30;;;;;;;12.90;7.50;;;;;;;2.72;100.00;101160.16;105101;1252;3549447;-57
2023/11/18 03:04:59;;;;;;;10.60;7.50;;;;;;;2.72;100.00;101155.02;109107;1255;57858;-56
2023/11/18 03:07:26;;;;;;;8.70;7.20;;;;;;;2.71;100.00;101151.30;109074;1254;72435;-54
2023/11/18 03:09:56;;;;;;;10.30;7.30;;;;;;;2.71;100.00;101149.89;108940;1253;67267;-54
2023/11/18 03:12:27;;;;;;;9.10;7.20;;;;;;;2.72;100.00;101146.70;108859;1253;71734;-54
2023/11/18 03:14:57;;;;;;;13.40;8.30;;;;;;;2.74;100.00;101145.80;108922;1259;60950;-54
2023/11/18 03:17:24;;;;;;;13.30;8.20;;;;;;;2.76;100.00;101146.89;109034;1259;60036;-56
2023/11/18 03:19:52;;;;;;;10.20;7.40;;;;;;;2.77;100.00;101143.88;108917;1256;73580;-56
2023/11/18 03:22:19;;;;;;;10.80;8.30;;;;;;;2.77;100.00;101140.34;109127;1254;65429;-56
2023/11/18 03:24:47;;;;;;;10.90;8.50;;;;;;;2.76;100.00;101138.56;108922;1254;71810;-53
2023/11/18 03:27:14;;;;;;;12.00;8.20;;;;;;;2.75;100.00;101136.23;108908;1253;61692;-54
2023/11/18 03:29:43;;;;;;;15.40;8.10;;;;;;;2.73;100.00;101132.15;108931;1254;58814;-54
2023/11/18 03:32:12;;;;;;;11.70;9.60;;;;;;;2.72;100.00;101131.10;108952;1254;71770;-54
2023/11/18 03:34:39;;;;;;;13.80;10.70;;;;;;;2.71;100.00;101130.39;108928;1256;67341;-55
2023/11/18 03:37:07;;;;;;;9.40;7.30;;;;;;;2.70;100.00;101131.09;108814;1254;73158;-54
2023/11/18 03:39:35;;;;;;;12.20;9.10;;;;;;;2.71;100.00;101128.79;108913;1257;60969;-54
2023/11/18 03:42:02;;;;;;;15.20;11.10;;;;;;;2.69;100.00;101124.70;109168;1254;59527;-54
2023/11/18 03:44:29;;;;;;;17.90;13.00;;;;;;;2.69;100.00;101120.27;109012;1253;73040;-54
2023/11/18 03:46:57;;;;;;;15.50;10.60;;;;;;;2.71;100.00;101116.92;107294;1260;68888;-54
2023/11/18 03:49:25;;;;;;;13.50;9.80;;;;;;;2.74;100.00;101114.25;105340;1257;71224;-55
2023/11/18 03:51:53;;;;;;;15.70;10.80;;;;;;;2.76;100.00;101115.34;105111;1259;59701;-54
2023/11/18 03:54:20;;;;;;;16.30;10.60;;;;;;;2.80;100.00;101117.31;104973;1255;59835;-55
2023/11/18 03:56:48;;;;;;;27.60;16.30;;;;;;;2.83;100.00;101122.27;104958;1253;73089;-55
2023/11/18 03:59:15;;;;;;;21.30;13.90;;;;;;;2.85;100.00;101129.39;104892;1260;66022;-54
2023/11/18 04:01:43;;;;;;;22.00;13.30;;;;;;;2.84;100.00;101127.26;104785;1264;72733;-54
2023/11/18 04:04:10;;;;;;;21.40;12.20;;;;;;;2.84;100.00;101133.11;105110;1260;59614;-54
2023/11/18 04:06:38;;;;;;;13.50;9.90;;;;;;;2.84;100.00;101138.77;105684;1260;59592;-54
2023/11/18 04:09:05;;;;;;;15.90;12.40;;;;;;;2.83;100.00;101134.33;105064;1258;73144;-54
2023/11/18 04:11:33;;;;;;;16.00;10.20;;;;;;;2.81;100.00;101132.02;105092;1261;65746;-54
2023/11/18 04:14:00;;;;;;;10.80;9.60;;;;;;;2.76;100.00;101132.36;105005;1261;71143;-54
2023/11/18 04:16:28;;;;;;;12.20;9.60;;;;;;;2.71;100.00;101127.91;105253;1254;59797;-53
2023/11/18 04:18:55;;;;;;;10.50;9.20;;;;;;;2.69;100.00;101125.94;105246;1260;59710;-54
2023/11/18 04:21:23;;;;;;;12.00;8.60;;;;;;;2.68;100.00;101125.76;105188;1255;71851;-54
2023/11/18 04:23:51;;;;;;;10.80;8.60;;;;;;;2.69;100.00;101123.28;105040;1259;66737;-54
2023/11/18 04:26:19;;;;;;;11.40;9.00;;;;;;;2.69;100.00;101123.80;105130;1261;72640;-53
2023/11/18 04:28:46;;;;;;;14.10;10.50;;;;;;;2.70;100.00;101120.98;105054;1257;59777;-54
2023/11/18 04:31:14;;;;;;;14.80;10.50;;;;;;;2.70;100.00;101121.52;105147;1258;59650;-52
2023/11/18 04:33:41;;;;;;;13.60;8.70;;;;;;;2.66;100.00;101121.14;104982;1259;73136;-53
2023/11/18 04:36:09;;;;;;;11.50;8.30;;;;;;;2.64;100.00;101116.52;104907;1258;67402;-54
2023/11/18 04:38:37;;;;;;;17.40;10.60;;;;;;;2.61;100.00;101115.44;104914;1258;72729;-55
2023/11/18 04:41:04;;;;;;;17.80;10.90;;;;;;;2.60;100.00;101114.90;105126;1254;61414;-56
2023/11/18 04:43:32;;;;;;;12.90;9.90;;;;;;;2.57;100.00;101118.24;105773;1260;59699;-55
2023/11/18 04:46:11;;;;;;;16.80;13.20;;;;;;;2.57;100.00;101126.39;105466;1255;72867;-55
2023/11/18 04:48:39;;;;;;;23.10;14.50;;;;;;;2.58;100.00;101121.78;105061;1254;68841;-55
2023/11/18 04:51:09;;;;;;;18.10;12.50;;;;;;;2.58;100.00;101125.70;104902;1259;72279;-55
2023/11/18 04:53:36;;;;;;;26.50;14.50;;;;;;;2.56;100.00;101120.36;106354;1257;59794;-54
2023/11/18 04:56:04;;;;;;;17.90;11.50;;;;;;;2.55;100.00;101122.68;104989;1254;60015;-54
2023/11/18 04:58:31;;;;;;;19.10;13.20;;;;;;;2.52;100.00;101118.94;104775;1260;75190;-54
2023/11/18 05:00:59;;;;;;;14.30;11.00;;;;;;;2.51;100.00;101120.34;104929;1254;65697;-55
2023/11/18 05:03:26;;;;;;;13.60;10.80;;;;;;;2.51;100.00;101119.80;104704;1259;72891;-54
2023/11/18 05:05:54;;;;;;;11.20;9.40;;;;;;;2.52;100.00;101121.06;104868;1260;60253;-51
2023/11/18 05:08:25;;;;;;;14.20;11.10;;;;;;;2.54;100.00;101127.10;104969;1254;59996;-55
2023/11/18 05:10:54;;;;;;;15.10;11.20;;;;;;;2.54;100.00;101125.69;105166;1258;74969;-55
2023/11/18 05:13:21;;;;;;;12.60;10.10;;;;;;;2.55;100.00;101129.23;104779;1260;67154;-55
2023/11/18 05:15:49;;;;;;;12.10;9.60;;;;;;;2.52;100.00;101128.86;106357;1260;71917;-56
2023/11/18 05:18:17;;;;;;;12.40;10.10;;;;;;;2.52;100.00;101131.50;105381;1257;60800;-54
2023/11/18 05:20:46;;;;;;;14.30;10.60;;;;;;;2.53;100.00;101133.83;104841;1258;60075;-55
2023/11/18 05:23:13;;;;;;;10.50;9.10;;;;;;;2.54;100.00;101135.08;104943;1255;73120;-55
2023/11/18 05:25:43;;;;;;;10.40;9.30;;;;;;;2.55;100.00;101138.80;104844;1255;65992;-54
2023/11/18 05:28:11;;;;;;;11.60;9.30;;;;;;;2.55;100.00;101146.05;104748;1259;71976;-55
2023/11/18 05:30:40;;;;;;;13.80;11.10;;;;;;;2.55;100.00;101151.20;105380;1254;59746;-56
2023/11/18 05:33:10;;;;;;;12.50;10.50;;;;;;;2.55;100.00;101157.92;105065;1260;59729;-51
2023/11/18 05:35:38;;;;;;;12.80;10.20;;;;;;;2.53;100.00;101163.25;105904;1254;73156;-55
2023/11/18 05:38:06;;;;;;;13.80;10.00;;;;;;;2.49;100.00;101158.95;104569;1258;66756;-55
2023/11/18 05:40:38;;;;;;;11.00;9.00;;;;;;;2.42;100.00;101159.44;106293;1256;71804;-55
2023/11/18 05:43:15;;;;;;;9.20;7.30;;;;;;;2.37;100.00;101165.25;106111;1258;59641;-55
2023/11/18 05:46:14;;;;;;;11.90;9.60;;;;;;;2.32;100.00;101167.50;104805;1257;59844;-54
2023/11/18 05:48:31;;;;;;;9.00;8.00;;;;;;;2.30;100.00;101177.59;104712;1254;72010;-55
2023/11/18 05:50:59;;;;;;;10.10;6.70;;;;;;;2.24;100.00;101169.22;104795;1254;66134;-55
2023/11/18 05:53:27;;;;;;;8.10;6.40;;;;;;;2.18;100.00;101165.10;104916;1258;71475;-55
2023/11/18 05:56:00;;;;;;;8.70;7.40;;;;;;;2.16;100.00;101169.85;104661;1258;59980;-55
2023/11/18 05:58:28;;;;;;;9.80;6.90;;;;;;;2.15;100.00;101171.96;104812;1258;60995;-55
2023/11/18 06:00:55;;;;;;;10.20;7.60;;;;;;;2.15;100.00;101169.49;104976;1260;71776;-56
2023/11/18 06:03:23;;;;;;;9.40;8.20;;;;;;;2.17;100.00;101175.71;104738;1258;66965;-55
2023/11/18 06:05:51;;;;;;;7.60;6.80;;;;;;;2.16;100.00;101178.01;109022;1254;71391;-56
2023/11/18 06:08:18;;;;;;;6.80;6.00;;;;;;;2.16;100.00;101182.25;108871;1254;59330;-57
2023/11/18 06:10:46;;;;;;;10.30;7.30;;;;;;;2.15;100.00;101182.42;108989;1254;60528;-55
2023/11/18 06:13:13;;;;;;;9.30;7.70;;;;;;;2.13;100.00;101182.40;108856;1254;71868;-55
2023/11/18 06:15:41;;;;;;;9.70;8.70;;;;;;;2.13;100.00;101186.65;108973;1254;65900;-55
2023/11/18 06:18:08;;;;;;;9.10;8.20;;;;;;;2.13;100.00;101188.24;106492;1254;72753;-53
2023/11/18 06:20:38;;;;;;;10.20;8.80;;;;;;;2.13;100.00;101194.44;104958;1254;61350;-53
2023/11/18 06:23:06;;;;;;;11.60;7.80;;;;;;;2.13;100.00;101193.21;108933;1254;60043;-55
2023/11/18 06:25:35;;;;;;;12.50;7.50;;;;;;;2.11;100.00;101185.41;109019;1254;73158;-57
2023/11/18 06:28:03;;;;;;;7.50;6.80;;;;;;;2.09;100.00;101184.32;109003;1254;67415;-55
2023/11/18 06:30:31;;;;;;;6.00;5.40;;;;;;;2.09;100.00;101188.39;108897;1254;71661;-55
2023/11/18 06:32:58;;;;;;;9.00;7.30;;;;;;;2.10;100.00;101186.81;109072;1254;60803;-56
2023/11/18 06:35:26;;;;;;;7.20;6.50;;;;;;;2.10;100.00;101189.65;109011;1254;60098;-55
2023/11/18 06:37:54;;;;;;;9.20;7.30;;;;;;;2.11;100.00;101195.15;107306;1257;74912;-55
2023/11/18 06:40:21;;;;;;;8.90;7.50;;;;;;;2.14;100.00;101194.27;104834;1254;66020;-53
2023/11/18 06:42:50;;;;;;;9.50;7.20;;;;;;;2.17;100.00;101197.15;105242;1257;71500;-55
2023/11/18 06:45:17;;;;;;;7.10;6.50;;;;;;;2.20;100.00;101198.23;104958;1254;59697;-56
2023/11/18 06:47:45;;;;;;;6.40;5.90;;;;;;;2.22;100.00;101203.37;105152;1254;60073;-54
2023/11/18 06:50:14;;;;;;;7.40;6.70;;;;;;;2.21;100.00;101211.86;105411;1254;71834;-54
2023/11/18 06:52:41;;;;;;;8.70;7.00;;;;;;;2.20;100.00;101216.84;104951;1260;66470;-54
2023/11/18 06:55:13;;;;;;;8.50;6.50;;;;;;;2.16;100.00;101219.63;104940;1260;71542;-54
2023/11/18 06:57:43;;;;;;;6.60;5.10;;;;;;;2.11;100.00;101215.52;105176;1260;60614;-54
2023/11/18 07:00:13;;;;;;;6.00;5.10;;;;;;;2.07;100.00;101219.17;105275;1254;61581;-55
2023/11/18 07:02:41;;;;;;;6.10;5.50;;;;;;;2.05;100.00;101217.39;105139;1254;73969;-55
2023/11/18 07:05:09;;;;;;;6.60;5.50;;;;;;;2.00;100.00;101214.87;104844;1254;65956;-54
2023/11/18 07:07:37;;;;;;;5.20;4.70;;;;;;;1.94;100.00;101203.50;105366;1256;72715;-52
2023/11/18 07:10:05;;;;;;;5.90;4.30;;;;;;;1.93;100.00;101202.24;104880;1255;60575;-55
2023/11/18 07:12:34;;;;;;;4.10;3.80;;;;;;;1.95;100.00;101199.26;104647;1257;60529;-56
2023/11/18 07:15:01;;;;;;;4.70;4.30;;;;;;;1.98;100.00;101194.48;104670;1253;72622;-55
2023/11/18 07:17:29;;;;;;;5.70;5.10;;;;;;;1.98;100.00;101191.13;104828;1260;67973;-55
2023/11/18 07:19:56;;;;;;;6.60;5.30;;;;;;;2.00;100.00;101195.93;104659;1254;72767;-55
2023/11/18 07:22:24;;;;;;;6.40;5.80;;;;;;;2.01;100.00;101198.42;104697;1254;60289;-55
2023/11/18 07:24:52;;;;;;;10.60;6.50;;;;;;;2.02;100.00;101202.51;105076;1257;60620;-55
2023/11/18 07:27:20;;;;;;;9.60;7.60;;;;;;;2.00;100.00;101198.40;104772;1258;73878;-55
2023/11/18 07:29:47;;;;;;;8.60;7.20;;;;;;;1.96;100.00;101196.60;105367;1256;66518;-55
2023/11/18 07:32:15;;;;;;;8.00;7.00;;;;;;;1.92;100.00;101190.90;106526;1254;71420;-53
2023/11/18 07:34:42;;;;;;;6.30;5.70;;;;;;;1.84;100.00;101192.77;104997;1254;61316;-55
2023/11/18 07:37:10;;;;;;;7.70;6.30;;;;;;;1.84;100.00;101193.48;104745;1254;60604;-55
2023/11/18 07:39:44;;;;;;;6.90;6.20;;;;;;;1.87;100.00;101196.70;105916;1254;75221;-54
2023/11/18 07:42:12;;;;;;;10.10;7.10;;;;;;;1.90;100.00;101206.81;105037;1258;65931;-55
2023/11/18 07:44:40;;;;;;;7.10;6.30;;;;;;;1.96;100.00;101206.87;104976;1259;73142;-54
2023/11/18 07:47:07;;;;;;;7.60;6.70;;;;;;;2.01;100.00;101205.14;104771;1254;60414;-54
2023/11/18 07:49:35;;;;;;;7.80;6.90;;;;;;;2.03;100.00;101208.72;105414;1254;60434;-56
2023/11/18 07:52:03;;;;;;;7.50;6.10;;;;;;;2.04;100.00;101208.71;104747;1254;75542;-55
2023/11/18 07:54:30;;;;;;;14.40;9.60;;;;;;;2.07;100.00;101212.81;105203;1257;66975;-54
2023/11/18 07:56:58;;;;;;;10.10;6.70;;;;;;;2.09;100.00;101210.72;104803;1257;73073;-55
2023/11/18 07:59:26;;;;;;;12.80;9.70;;;;;;;2.12;100.00;101207.90;104809;1255;60562;-55
2023/11/18 08:01:54;;;;;;;14.40;10.90;;;;;;;2.15;100.00;101211.12;104781;1259;60527;-55
2023/11/18 08:04:22;;;;;;;11.20;8.70;;;;;;;2.21;100.00;101220.92;104985;1254;74306;-56
2023/11/18 08:06:49;;;;;;;7.50;5.80;;;;;;;2.24;100.00;101226.26;104932;1257;66737;-54
2023/11/18 08:09:22;;;;;;;5.50;5.00;;;;;;;2.25;100.00;101228.56;104786;1254;73317;-54
2023/11/18 08:11:50;;;;;;;5.10;4.40;;;;;;;2.26;100.00;101235.66;105069;1259;60291;-56
2023/11/18 08:14:17;;;;;;;6.90;4.90;;;;;;;2.28;100.00;101234.27;104779;1254;60415;-56
2023/11/18 08:16:45;;;;;;;6.00;5.40;;;;;;;2.35;100.00;101235.56;104939;1254;73866;-55
2023/11/18 08:19:13;;;;;;;7.50;5.90;;;;;;;2.40;100.00;101234.88;105240;1254;66511;-54
2023/11/18 08:21:41;;;;;;;6.40;5.40;;;;;;;2.40;100.00;101238.43;104727;1259;72718;-53
2023/11/18 08:24:09;;;;;;;8.80;5.20;;;;;;;2.46;100.00;101243.62;105637;1254;61213;-54
2023/11/18 08:26:36;;;;;;;5.90;5.30;;;;;;;2.52;100.00;101248.63;104961;1257;60930;-52
2023/11/18 08:29:04;;;;;;;4.80;4.30;;;;;;;2.58;100.00;101250.80;104464;1256;72247;-53
2023/11/18 08:31:32;;;;;;;2.90;2.50;;;;;;;2.62;100.00;101255.46;104842;1254;65628;-54
2023/11/18 08:34:00;;;;;;;3.90;3.60;;;;;;;2.68;100.00;101264.17;106305;1254;72757;-54
2023/11/18 08:36:28;;;;;;;4.10;3.00;;;;;;;2.71;100.00;101273.77;104965;1254;60430;-54
2023/11/18 08:38:56;;;;;;;4.00;3.60;;;;;;;2.76;100.00;101284.27;104853;1261;60583;-51
2023/11/18 08:41:24;;;;;;;5.80;2.90;;;;;;;2.80;100.00;101288.38;107593;1254;73943;-54
2023/11/18 08:43:52;;;;;;;3.40;2.60;;;;;;;2.85;100.00;101293.57;104814;1256;65771;-51
2023/11/18 08:46:19;;;;;;;4.70;4.00;;;;;;;2.89;100.00;101294.66;109059;1253;71455;-55
2023/11/18 08:48:47;;;;;;;3.20;2.90;;;;;;;2.93;100.00;101297.34;106860;1253;60409;-55
2023/11/18 08:51:16;;;;;;;6.30;3.30;;;;;;;2.99;100.00;101298.27;105090;1254;60291;-54
2023/11/18 08:53:45;;;;;;;3.30;2.70;;;;;;;3.04;100.00;101302.92;108922;1253;73635;-55
2023/11/18 08:56:15;;;;;;;3.40;3.10;;;;;;;3.08;100.00;101305.60;109135;1253;65982;-55
2023/11/18 08:58:44;;;;;;;2.70;2.50;;;;;;;3.18;100.00;101309.77;109008;1254;71482;-54
2023/11/18 09:01:15;;;;;;;3.20;2.10;;;;;;;3.28;100.00;101313.71;109000;1253;60884;-55
2023/11/18 09:03:43;;;;;;;4.10;3.70;;;;;;;3.37;100.00;101313.77;109126;1253;59119;-55
2023/11/18 09:06:17;;;;;;;3.80;3.00;;;;;;;3.44;100.00;101313.45;109017;1257;72637;-55
2023/11/18 09:08:52;;;;;;;2.90;2.70;;;;;;;3.49;100.00;101316.86;109214;1253;66909;-55
2023/11/18 09:11:24;;;;;;;3.80;3.40;;;;;;;3.52;100.00;101319.00;109007;1254;71375;-55
2023/11/18 09:13:59;;;;;;;5.50;2.40;;;;;;;3.40;100.00;101310.95;108955;1253;59728;-55
2023/11/18 09:16:30;;;;;;;2.50;2.30;;;;;;;3.29;100.00;101314.96;108921;1253;60095;-55
2023/11/18 09:18:59;;;;;;;4.40;3.70;;;;;;;3.23;100.00;101304.81;109033;1252;73956;-55
2023/11/18 09:21:29;;;;;;;4.00;3.50;;;;;;;3.17;100.00;101290.94;109086;1254;64786;-55
2023/11/18 09:23:57;;;;;;;3.30;2.10;;;;;;;3.18;100.00;101288.63;108998;1252;71459;-55
2023/11/18 09:26:25;;;;;;;6.40;2.50;;;;;;;3.22;100.00;101287.43;109003;1254;60904;-55
2023/11/18 09:28:54;;;;;;;2.90;2.60;;;;;;;3.28;100.00;101289.60;105898;1254;61318;-54
2023/11/18 09:31:22;;;;;;;3.30;2.50;;;;;;;3.37;100.00;101293.54;104994;1259;75441;-54
2023/11/18 09:33:52;;;;;;;3.60;3.30;;;;;;;3.48;100.00;101290.75;104883;1254;65519;-53
2023/11/18 09:36:22;;;;;;;3.50;3.20;;;;;;;3.55;100.00;101290.44;105161;1254;71510;-54
2023/11/18 09:38:50;;;;;;;6.00;4.00;;;;;;;3.59;100.00;101294.89;106181;1257;60546;-54
2023/11/18 09:41:17;;;;;;;4.50;3.90;;;;;;;3.60;100.00;101292.05;105030;1254;60467;-55
2023/11/18 09:43:46;;;;;;;4.40;4.00;;;;;;;3.59;100.00;101287.63;104819;1254;73823;-54
2023/11/18 09:46:23;;;;;;;6.30;3.50;;;;;;;3.53;100.00;101284.93;106348;1256;69230;-54
2023/11/18 09:48:59;;;;;;;4.20;3.80;;;;;;;3.42;100.00;101284.16;106845;1257;73121;-54
2023/11/18 09:51:32;;;;;;;2.20;2.00;;;;;;;3.36;100.00;101278.82;106401;1256;60533;-54
2023/11/18 09:54:00;;;;;;;2.30;2.10;;;;;;;3.29;100.00;101268.66;105544;1257;60568;-53
2023/11/18 09:56:56;;;;;;;3.90;3.30;;;;;;;3.23;100.00;101252.30;106425;1259;72979;-53
2023/11/18 09:59:54;;;;;;;6.20;4.10;;;;;;;3.22;100.00;101261.71;104950;1254;67663;-52
2023/11/18 10:02:23;;;;;;;5.90;5.10;;;;;;;3.24;100.00;101261.53;105772;1254;71472;-54
2023/11/18 10:04:57;;;;;;;4.10;3.80;;;;;;;3.21;100.00;101247.52;105459;1261;60515;-55
2023/11/18 10:07:30;;;;;;;4.40;3.80;;;;;;;3.12;100.00;101239.12;104894;1254;60482;-55
2023/11/18 10:09:57;;;;;;;4.00;3.70;;;;;;;3.03;100.00;101225.77;104805;1254;74324;-55
2023/11/18 10:12:26;;;;;;;4.30;3.90;;;;;;;3.02;100.00;101229.30;104754;1257;67408;-54
2023/11/18 10:14:56;;;;;;;4.50;4.00;;;;;;;3.03;100.00;101239.25;105031;1254;74816;-54
2023/11/18 10:17:26;;;;;;;9.40;6.30;;;;;;;3.01;100.00;101239.59;104788;1254;60527;-55
2023/11/18 10:19:55;;;;;;;11.60;6.40;;;;;;;3.01;100.00;101245.27;104958;1258;60430;-55
2023/11/18 10:22:29;;;;;;;15.70;8.20;;;;;;;3.09;100.00;101248.33;104970;1259;74601;-55
2023/11/18 10:24:57;;;;;;;8.40;4.90;;;;;;;3.18;100.00;101257.07;104928;1259;66162;-55
2023/11/18 10:27:28;;;;;;;3.50;2.80;;;;;;;3.28;100.00;101258.71;104854;1260;71628;-53
2023/11/18 10:29:57;;;;;;;4.70;3.60;;;;;;;3.35;100.00;101268.33;106054;1254;60531;-55
2023/11/18 10:32:27;;;;;;;7.30;4.20;;;;;;;3.41;100.00;101270.49;104975;1257;60462;-55
2023/11/18 10:34:56;;;;;;;5.00;2.90;;;;;;;3.47;100.00;101279.93;105309;1254;74056;-57
2023/11/18 10:37:30;;;;;;;4.10;2.90;;;;;;;3.55;100.00;101289.73;105292;1256;65610;-54
2023/11/18 10:40:04;;;;;;;3.20;2.80;;;;;;;3.60;100.00;101292.95;105378;1256;71563;-54
2023/11/18 10:42:32;;;;;;;5.90;3.90;;;;;;;3.59;100.00;101292.94;105335;1255;60647;-55
2023/11/18 10:45:03;;;;;;;6.10;3.70;;;;;;;3.53;100.00;101292.38;104944;1254;60124;-54
2023/11/18 10:47:38;;;;;;;4.80;2.70;;;;;;;3.49;100.00;101298.21;105097;1254;73857;-54
2023/11/18 10:50:09;;;;;;;3.30;2.70;;;;;;;3.45;100.00;101305.83;105162;1261;67498;-55
2023/11/18 10:52:40;;;;;;;8.40;3.10;;;;;;;3.35;100.00;101303.48;105174;1253;72719;-56
2023/11/18 10:55:11;;;;;;;4.50;2.50;;;;;;;3.22;100.00;101298.42;105120;1254;63185;-53
2023/11/18 10:57:41;;;;;;;2.40;2.20;;;;;;;3.11;100.00;101292.14;104804;1256;60520;-56
2023/11/18 11:00:13;;;;;;;3.20;2.90;;;;;;;3.03;100.00;101291.58;105380;1254;74313;-56
2023/11/18 11:02:41;;;;;;;3.20;2.10;;;;;;;3.03;100.00;101297.95;105621;1258;65831;-55
2023/11/18 11:05:19;;;;;;;2.40;2.20;;;;;;;3.05;100.00;101297.98;105018;1254;71394;-55
2023/11/18 11:07:48;;;;;;;2.60;2.40;;;;;;;3.04;100.00;101305.95;105225;1258;60355;-56
2023/11/18 11:10:24;;;;;;;4.30;3.40;;;;;;;2.97;100.00;101283.73;104919;1256;60440;-54
2023/11/18 11:12:52;;;;;;;2.90;2.50;;;;;;;2.90;100.00;101287.57;106414;1254;74655;-56
2023/11/18 11:15:28;;;;;;;2.40;2.20;;;;;;;2.83;100.00;101277.41;104987;1260;65554;-55
2023/11/18 11:18:08;;;;;;;3.80;1.90;;;;;;;2.81;100.00;101285.90;105495;1253;73189;-56
2023/11/18 11:20:42;;;;;;;2.10;1.70;;;;;;;2.78;100.00;101286.06;106279;1254;59911;-55
2023/11/18 11:23:32;;;;;;;1.80;1.70;;;;;;;2.74;100.00;101281.94;105609;1254;60095;-54